createdAt,value
2023-05-21T00:01:18.301Z,2.00
2023-05-21T00:03:50.300Z,2.10
2023-05-21T00:08:47.472Z,2.20
2023-05-21T00:11:16.768Z,1.90
2023-05-21T00:13:46.037Z,2.50
2023-05-21T00:16:13.481Z,2.10
2023-05-21T00:18:42.967Z,2.40
2023-05-21T00:21:10.593Z,2.00
2023-05-21T00:23:43.454Z,2.10
2023-05-21T00:26:12.328Z,2.30
2023-05-21T00:28:42.610Z,1.60
2023-05-21T00:31:12.522Z,2.10
2023-05-21T00:33:40.363Z,2.20
2023-05-21T00:36:07.696Z,2.40
2023-05-21T00:38:38.351Z,2.00
2023-05-21T00:41:05.677Z,2.20
2023-05-21T00:43:35.614Z,2.10
2023-05-21T00:46:03.724Z,2.10
2023-05-21T00:48:32.472Z,2.00
2023-05-21T00:51:03.728Z,2.00
2023-05-21T00:53:36.296Z,1.90
2023-05-21T00:56:06.374Z,2.10
2023-05-21T00:58:34.697Z,2.50
2023-05-21T01:01:04.063Z,2.30
2023-05-21T01:03:31.466Z,2.00
2023-05-21T01:06:00.927Z,2.00
2023-05-21T01:08:30.480Z,1.90
2023-05-21T01:11:00.469Z,2.00
2023-05-21T01:13:29.464Z,2.20
2023-05-21T01:16:01.841Z,2.60
2023-05-21T01:18:35.680Z,2.10
2023-05-21T01:21:09.522Z,2.20
2023-05-21T01:23:39.052Z,2.40
2023-05-21T01:26:13.061Z,2.30
2023-05-21T01:28:47.652Z,2.10
2023-05-21T01:31:53.760Z,2.60
2023-05-21T01:34:23.021Z,1.90
2023-05-21T01:36:57.681Z,2.00
2023-05-21T01:39:31.685Z,2.90
2023-05-21T01:42:00.308Z,2.20
2023-05-21T01:44:30.290Z,2.70
2023-05-21T01:46:58.534Z,2.40
2023-05-21T01:49:26.036Z,2.60
2023-05-21T01:51:54.806Z,2.60
2023-05-21T01:54:24.014Z,2.90
2023-05-21T01:56:53.523Z,2.80
2023-05-21T01:59:21.709Z,3.00
2023-05-21T02:01:49.404Z,2.80
2023-05-21T02:04:18.256Z,2.90
2023-05-21T02:06:46.145Z,3.50
2023-05-21T02:09:13.457Z,2.70
2023-05-21T02:11:40.832Z,2.80
2023-05-21T02:14:10.629Z,2.70
2023-05-21T02:16:38.674Z,3.60
2023-05-21T02:19:12.360Z,3.40
2023-05-21T02:21:39.984Z,2.70
2023-05-21T02:24:07.929Z,3.70
2023-05-21T02:26:35.827Z,3.10
2023-05-21T02:29:08.027Z,10.10
2023-05-21T02:31:36.348Z,4.80
2023-05-21T02:34:03.830Z,4.40
2023-05-21T02:36:33.497Z,3.30
2023-05-21T02:39:01.986Z,9.00
2023-05-21T02:41:31.511Z,4.20
2023-05-21T02:44:01.621Z,3.30
2023-05-21T02:46:28.976Z,3.60
2023-05-21T02:48:56.901Z,2.80
2023-05-21T02:51:30.810Z,3.40
2023-05-21T02:53:58.241Z,3.40
2023-05-21T02:56:35.017Z,3.40
2023-05-21T02:59:04.638Z,6.20
2023-05-21T03:01:36.316Z,3.60
2023-05-21T03:04:08.267Z,3.10
2023-05-21T03:06:38.117Z,3.10
2023-05-21T03:09:07.140Z,3.70
2023-05-21T03:11:36.581Z,3.30
2023-05-21T03:14:04.233Z,3.20
2023-05-21T03:16:41.957Z,3.30
2023-05-21T03:19:12.567Z,4.30
2023-05-21T03:21:43.482Z,3.60
2023-05-21T03:24:14.093Z,3.70
2023-05-21T03:26:48.653Z,3.40
2023-05-21T03:29:16.218Z,7.00
2023-05-21T03:31:47.646Z,4.60
2023-05-21T03:34:20.329Z,3.60
2023-05-21T03:36:53.621Z,4.10
2023-05-21T03:39:23.138Z,4.50
2023-05-21T03:41:51.299Z,3.90
2023-05-21T03:44:27.269Z,3.90
2023-05-21T03:47:03.603Z,4.10
2023-05-21T03:49:36.314Z,4.70
2023-05-21T03:52:07.244Z,3.90
2023-05-21T03:54:43.401Z,4.70
2023-05-21T03:57:13.733Z,4.20
2023-05-21T03:59:41.115Z,4.80
2023-05-21T04:02:08.886Z,7.40
2023-05-21T04:04:40.612Z,4.50
2023-05-21T04:07:15.650Z,5.30
2023-05-21T04:09:43.737Z,4.60
2023-05-21T04:12:11.613Z,5.70
2023-05-21T04:14:39.249Z,4.30
2023-05-21T04:17:06.992Z,4.30
2023-05-21T04:19:38.991Z,4.60
2023-05-21T04:22:07.612Z,4.80
2023-05-21T04:24:39.087Z,4.60
2023-05-21T04:29:45.869Z,3.80
2023-05-21T04:32:18.368Z,4.30
2023-05-21T04:34:53.355Z,7.00
2023-05-21T04:37:25.474Z,3.80
2023-05-21T04:39:55.766Z,4.80
2023-05-21T04:42:27.126Z,4.90
2023-05-21T04:44:59.818Z,3.80
2023-05-21T04:47:35.869Z,3.60
2023-05-21T04:50:04.768Z,4.80
2023-05-21T04:52:35.159Z,4.60
2023-05-21T04:55:07.881Z,4.20
2023-05-21T04:57:37.957Z,4.60
2023-05-21T05:00:07.264Z,4.70
2023-05-21T05:02:38.607Z,4.20
2023-05-21T05:05:07.784Z,3.90
2023-05-21T05:07:37.661Z,4.10
2023-05-21T05:10:07.925Z,4.10
2023-05-21T05:12:36.285Z,5.60
2023-05-21T05:15:03.651Z,4.20
2023-05-21T05:17:32.524Z,4.10
2023-05-21T05:20:02.707Z,4.20
2023-05-21T05:22:30.777Z,7.30
2023-05-21T05:25:03.855Z,4.50
2023-05-21T05:27:33.375Z,4.30
2023-05-21T05:30:02.265Z,4.10
2023-05-21T05:32:33.366Z,3.40
2023-05-21T05:35:04.962Z,3.70
2023-05-21T05:37:35.295Z,3.70
2023-05-21T05:40:10.152Z,3.80
2023-05-21T05:42:44.871Z,4.10
2023-05-21T05:45:21.969Z,3.90
2023-05-21T05:47:52.772Z,4.40
2023-05-21T05:50:26.044Z,4.00
2023-05-21T05:52:56.066Z,4.10
2023-05-21T05:55:27.013Z,3.50
2023-05-21T05:57:58.161Z,2.70
2023-05-21T06:00:30.581Z,3.20
2023-05-21T06:03:04.078Z,3.70
2023-05-21T06:05:54.780Z,3.70
2023-05-21T06:08:24.970Z,3.20
2023-05-21T06:10:53.504Z,3.20
2023-05-21T06:13:22.466Z,2.80
2023-05-21T06:15:51.780Z,2.90
2023-05-21T06:18:22.755Z,3.60
2023-05-21T06:20:51.734Z,2.70
2023-05-21T06:23:23.909Z,3.30
2023-05-21T06:25:51.576Z,3.30
2023-05-21T06:28:20.726Z,2.90
2023-05-21T06:30:49.413Z,3.00
2023-05-21T06:33:18.534Z,3.00
2023-05-21T06:35:48.676Z,3.30
2023-05-21T06:38:17.016Z,2.80
2023-05-21T06:40:47.697Z,3.30
2023-05-21T06:43:25.065Z,2.80
2023-05-21T06:46:15.512Z,2.80
2023-05-21T06:48:44.563Z,3.00
2023-05-21T06:51:11.914Z,2.50
2023-05-21T06:53:42.235Z,3.80
2023-05-21T06:56:12.976Z,3.10
2023-05-21T06:58:48.165Z,2.90
2023-05-21T07:01:17.230Z,3.20
2023-05-21T07:03:45.960Z,2.80
2023-05-21T07:06:13.947Z,2.70
2023-05-21T07:08:41.495Z,4.30
2023-05-21T07:11:11.398Z,3.00
2023-05-21T07:13:45.016Z,3.70
2023-05-21T07:16:14.410Z,3.10
2023-05-21T07:18:41.933Z,2.60
2023-05-21T07:21:18.281Z,3.10
2023-05-21T07:23:55.685Z,2.80
2023-05-21T07:26:25.385Z,2.60
2023-05-21T07:28:54.754Z,3.00
2023-05-21T07:31:30.369Z,2.30
2023-05-21T07:34:08.223Z,2.50
2023-05-21T07:36:38.419Z,2.90
2023-05-21T07:39:06.196Z,2.70
2023-05-21T07:41:34.084Z,5.00
2023-05-21T07:44:03.760Z,2.60
2023-05-21T07:46:32.205Z,2.60
2023-05-21T07:49:01.445Z,2.80
2023-05-21T07:51:32.489Z,3.00
2023-05-21T07:54:06.769Z,2.90
2023-05-21T07:56:36.538Z,2.40
2023-05-21T07:59:05.986Z,1.90
2023-05-21T08:01:38.205Z,3.20
2023-05-21T08:04:07.091Z,2.70
2023-05-21T08:06:39.708Z,2.10
2023-05-21T08:15:19.580Z,2.00
2023-05-21T08:17:50.499Z,2.20
2023-05-21T08:20:23.942Z,3.10
2023-05-21T08:22:53.505Z,3.00
2023-05-21T08:25:20.904Z,2.90
2023-05-21T08:27:51.681Z,2.40
2023-05-21T08:30:23.484Z,2.70
2023-05-21T08:32:51.344Z,3.20
2023-05-21T08:35:22.787Z,2.80
2023-05-21T08:38:07.212Z,2.60
2023-05-21T08:41:04.147Z,2.50
2023-05-21T08:43:39.342Z,2.70
2023-05-21T08:46:26.769Z,2.80
2023-05-21T08:48:56.046Z,2.20
2023-05-21T08:51:25.225Z,2.80
2023-05-21T08:53:56.779Z,2.20
2023-05-21T08:56:27.905Z,2.10
2023-05-21T08:59:00.929Z,2.20
2023-05-21T09:01:33.620Z,2.80
2023-05-21T09:06:54.858Z,2.70
2023-05-21T09:09:51.967Z,2.60
2023-05-21T09:12:20.787Z,2.40
2023-05-21T09:14:48.251Z,2.70
2023-05-21T09:17:31.589Z,2.40
2023-05-21T09:20:20.053Z,2.50
2023-05-21T09:22:57.577Z,2.00
2023-05-21T09:25:29.610Z,2.20
2023-05-21T09:27:59.769Z,2.80
2023-05-21T09:30:34.041Z,3.30
2023-05-21T09:33:08.857Z,2.10
2023-05-21T09:38:09.818Z,2.70
2023-05-21T09:40:46.142Z,2.90
2023-05-21T09:43:18.776Z,2.30
2023-05-21T09:46:00.443Z,2.40
2023-05-21T09:48:43.793Z,2.60
2023-05-21T09:51:16.777Z,2.30
2023-05-21T09:53:48.350Z,3.00
2023-05-21T09:56:24.978Z,2.00
2023-05-21T09:59:01.462Z,2.00
2023-05-21T10:01:34.038Z,2.30
2023-05-21T10:04:05.441Z,1.90
2023-05-21T10:06:39.397Z,2.10
2023-05-21T10:09:08.788Z,2.60
2023-05-21T10:11:37.156Z,3.00
2023-05-21T10:14:09.909Z,3.10
2023-05-21T10:16:38.959Z,3.70
2023-05-21T10:19:11.402Z,2.90
2023-05-21T10:21:42.764Z,2.90
2023-05-21T10:24:11.585Z,2.20
2023-05-21T10:26:42.267Z,2.70
2023-05-21T10:29:12.820Z,2.80
2023-05-21T10:31:42.386Z,3.40
2023-05-21T10:34:13.442Z,2.10
2023-05-21T10:36:44.510Z,2.70
2023-05-21T10:39:14.311Z,2.10
2023-05-21T10:41:59.114Z,2.40
2023-05-21T10:44:52.834Z,2.50
2023-05-21T10:47:52.807Z,2.60
2023-05-21T10:53:03.533Z,3.00
2023-05-21T10:56:08.004Z,1.90
2023-05-21T10:59:02.162Z,2.50
2023-05-21T11:01:29.967Z,1.90
2023-05-21T11:03:59.940Z,3.00
2023-05-21T11:06:28.725Z,2.90
2023-05-21T11:08:56.086Z,2.50
2023-05-21T11:11:52.092Z,3.30
2023-05-21T11:14:41.048Z,2.30
2023-05-21T11:17:17.728Z,2.70
2023-05-21T11:19:49.175Z,2.50
2023-05-21T11:22:29.123Z,2.20
2023-05-21T11:25:01.209Z,2.40
2023-05-21T11:27:36.525Z,2.50
2023-05-21T11:30:08.820Z,2.20
2023-05-21T11:32:41.098Z,2.60
2023-05-21T11:35:10.257Z,4.70
2023-05-21T11:37:42.019Z,2.30
2023-05-21T11:40:20.127Z,2.70
2023-05-21T11:42:54.868Z,2.40
2023-05-21T11:45:23.453Z,2.40
2023-05-21T11:47:52.568Z,2.60
2023-05-21T11:50:20.421Z,2.90
2023-05-21T11:53:05.290Z,2.50
2023-05-21T11:55:33.575Z,2.70
2023-05-21T11:58:01.175Z,2.60
2023-05-21T12:00:30.269Z,2.80
2023-05-21T12:02:59.157Z,2.70
2023-05-21T12:05:27.745Z,2.70
2023-05-21T12:07:58.619Z,2.00
2023-05-21T12:10:27.225Z,2.20
2023-05-21T12:12:57.362Z,2.30
2023-05-21T12:15:26.503Z,2.40
2023-05-21T12:17:57.316Z,2.40
2023-05-21T12:20:28.941Z,2.30
2023-05-21T12:22:59.817Z,2.40
2023-05-21T12:25:36.101Z,2.70
2023-05-21T12:28:05.766Z,2.40
2023-05-21T12:30:35.158Z,2.50
2023-05-21T12:33:04.870Z,2.80
2023-05-21T12:35:32.751Z,2.50
2023-05-21T12:38:04.752Z,2.30
2023-05-21T12:40:41.020Z,2.90
2023-05-21T12:43:10.180Z,3.00
2023-05-21T12:45:39.791Z,3.00
2023-05-21T12:48:13.032Z,2.30
2023-05-21T12:50:42.352Z,2.80
2023-05-21T12:53:09.692Z,2.50
2023-05-21T12:55:37.352Z,2.20
2023-05-21T12:58:09.032Z,2.50
2023-05-21T13:00:37.383Z,2.70
2023-05-21T13:03:06.958Z,2.90
2023-05-21T13:05:34.721Z,3.00
2023-05-21T13:08:02.436Z,2.50
2023-05-21T13:10:29.920Z,2.60
2023-05-21T13:13:02.441Z,2.40
2023-05-21T13:18:01.761Z,2.70
2023-05-21T13:20:29.687Z,2.40
2023-05-21T13:22:57.191Z,2.30
2023-05-21T13:25:29.222Z,2.40
2023-05-21T13:28:01.979Z,2.60
2023-05-21T13:30:29.186Z,2.40
2023-05-21T13:32:58.918Z,2.50
2023-05-21T13:35:26.796Z,2.60
2023-05-21T13:37:54.368Z,2.80
2023-05-21T13:40:22.378Z,2.70
2023-05-21T13:42:49.869Z,2.90
2023-05-21T13:45:18.597Z,2.40
2023-05-21T13:47:46.267Z,2.60
2023-05-21T13:50:13.765Z,3.00
2023-05-21T13:52:43.800Z,2.40
2023-05-21T13:55:12.010Z,2.60
2023-05-21T13:57:40.905Z,2.50
2023-05-21T14:00:11.285Z,2.30
2023-05-21T14:02:39.176Z,2.70
2023-05-21T14:05:08.266Z,2.70
2023-05-21T14:07:36.900Z,3.00
2023-05-21T14:10:07.228Z,2.50
2023-05-21T14:12:34.868Z,3.30
2023-05-21T14:15:02.210Z,2.70
2023-05-21T14:17:29.892Z,2.30
2023-05-21T14:19:57.154Z,2.90
2023-05-21T14:22:24.543Z,2.70
2023-05-21T14:24:52.919Z,2.70
2023-05-21T14:27:22.005Z,2.80
2023-05-21T14:29:49.569Z,3.30
2023-05-21T14:32:19.478Z,2.30
2023-05-21T14:34:47.758Z,2.40
2023-05-21T14:37:15.517Z,2.30
2023-05-21T14:39:44.316Z,2.20
2023-05-21T14:42:11.711Z,2.60
2023-05-21T14:44:39.930Z,2.40
2023-05-21T14:47:09.255Z,2.70
2023-05-21T14:49:37.607Z,2.80
2023-05-21T14:52:06.022Z,2.50
2023-05-21T14:54:34.629Z,2.40
2023-05-21T14:57:01.775Z,2.20
2023-05-21T14:59:32.252Z,2.80
2023-05-21T15:01:59.824Z,2.90
2023-05-21T15:04:27.041Z,2.40
2023-05-21T15:06:54.403Z,4.40
2023-05-21T15:09:21.827Z,3.20
2023-05-21T15:11:52.937Z,2.30
2023-05-21T15:14:21.088Z,2.70
2023-05-21T15:16:49.133Z,2.50
2023-05-21T15:19:16.708Z,2.40
2023-05-21T15:21:45.010Z,2.80
2023-05-21T15:24:13.426Z,2.90
2023-05-21T15:26:40.931Z,2.50
2023-05-21T15:29:08.177Z,2.40
2023-05-21T15:31:35.434Z,2.20
2023-05-21T15:34:04.765Z,2.80
2023-05-21T15:36:34.094Z,2.90
2023-05-21T15:39:03.908Z,3.00
2023-05-21T15:41:31.085Z,3.30
2023-05-21T15:43:58.412Z,3.00
2023-05-21T15:46:26.099Z,3.30
2023-05-21T15:48:54.389Z,3.50
2023-05-21T15:51:23.896Z,5.00
2023-05-21T15:53:51.871Z,3.10
2023-05-21T15:56:19.551Z,4.10
2023-05-21T15:58:47.236Z,3.20
2023-05-21T16:01:14.750Z,2.80
2023-05-21T16:03:42.164Z,2.30
2023-05-21T16:06:12.525Z,2.50
2023-05-21T16:08:39.891Z,2.50
2023-05-21T16:11:08.169Z,3.00
2023-05-21T16:13:36.788Z,2.40
2023-05-21T16:16:04.242Z,2.40
2023-05-21T16:18:31.448Z,2.50
2023-05-21T16:20:59.032Z,2.80
2023-05-21T16:23:26.264Z,2.20
2023-05-21T16:25:54.444Z,2.80
2023-05-21T16:28:24.527Z,3.10
2023-05-21T16:30:53.202Z,2.10
2023-05-21T16:33:20.416Z,3.40
2023-05-21T16:35:49.177Z,2.80
2023-05-21T16:38:18.388Z,2.50
2023-05-21T16:40:45.985Z,2.90
2023-05-21T16:43:13.393Z,2.80
2023-05-21T16:45:44.643Z,2.60
2023-05-21T16:48:13.055Z,2.50
2023-05-21T16:50:41.774Z,3.00
2023-05-21T16:53:10.148Z,3.10
2023-05-21T16:55:39.964Z,2.60
2023-05-21T16:58:09.710Z,2.10
2023-05-21T17:00:38.115Z,2.70
2023-05-21T17:03:05.607Z,2.80
2023-05-21T17:05:39.410Z,3.30
2023-05-21T17:08:22.523Z,2.90
2023-05-21T17:10:54.032Z,2.70
2023-05-21T17:13:23.421Z,2.70
2023-05-21T17:15:51.909Z,2.60
2023-05-21T17:18:20.634Z,2.90
2023-05-21T17:20:49.408Z,3.40
2023-05-21T17:23:18.425Z,5.90
2023-05-21T17:25:51.931Z,2.90
2023-05-21T17:28:20.423Z,6.40
2023-05-21T17:30:50.001Z,3.60
2023-05-21T17:33:19.367Z,4.00
2023-05-21T17:35:48.580Z,3.00
2023-05-21T17:38:16.359Z,6.60
2023-05-21T17:40:43.699Z,3.40
2023-05-21T17:43:12.076Z,5.40
2023-05-21T17:45:40.198Z,3.20
2023-05-21T17:48:07.756Z,3.30
2023-05-21T17:50:35.721Z,3.60
2023-05-21T17:53:10.116Z,3.30
2023-05-21T17:55:51.001Z,4.50
2023-05-21T17:58:23.593Z,3.30
2023-05-21T18:01:00.229Z,3.50
2023-05-21T18:03:30.285Z,5.00
2023-05-21T18:05:59.211Z,3.40
2023-05-21T18:08:27.390Z,3.40
2023-05-21T18:11:01.928Z,3.30
2023-05-21T18:13:31.669Z,3.20
2023-05-21T18:16:01.479Z,3.50
2023-05-21T18:18:30.461Z,3.00
2023-05-21T18:21:01.492Z,3.80
2023-05-21T18:23:32.240Z,3.10
2023-05-21T18:26:03.395Z,3.40
2023-05-21T18:28:36.475Z,3.60
2023-05-21T18:31:07.428Z,9.10
2023-05-21T18:33:36.803Z,3.80
2023-05-21T18:36:08.598Z,3.50
2023-05-21T18:38:39.669Z,3.30
2023-05-21T18:41:10.859Z,4.10
2023-05-21T18:43:41.878Z,4.30
2023-05-21T18:46:12.844Z,4.70
2023-05-21T18:48:42.455Z,4.60
2023-05-21T18:51:10.579Z,4.60
2023-05-21T18:53:40.697Z,5.50
2023-05-21T18:56:18.860Z,4.50
2023-05-21T18:58:53.755Z,4.30
2023-05-21T19:01:27.484Z,5.80
2023-05-21T19:03:58.482Z,3.90
2023-05-21T19:06:28.221Z,4.00
2023-05-21T19:08:55.665Z,3.90
2023-05-21T19:11:28.184Z,4.70
2023-05-21T19:13:55.482Z,3.70
2023-05-21T19:16:23.184Z,4.40
2023-05-21T19:18:50.738Z,4.50
2023-05-21T19:21:18.111Z,3.30
2023-05-21T19:23:53.109Z,3.20
2023-05-21T19:26:23.044Z,3.70
2023-05-21T19:28:56.831Z,6.00
2023-05-21T19:31:25.513Z,6.70
2023-05-21T19:33:58.710Z,4.20
2023-05-21T19:36:48.278Z,4.10
2023-05-21T19:39:31.356Z,3.90
2023-05-21T19:42:00.198Z,4.30
2023-05-21T19:44:28.047Z,3.50
2023-05-21T19:46:56.118Z,4.00
2023-05-21T19:49:23.711Z,5.10
2023-05-21T19:51:55.145Z,3.80
2023-05-21T19:54:23.057Z,4.10
2023-05-21T19:56:58.709Z,4.30
2023-05-21T19:59:28.887Z,3.30
2023-05-21T20:01:56.747Z,4.30
2023-05-21T20:04:24.033Z,4.00
2023-05-21T20:06:53.660Z,4.00
2023-05-21T20:09:20.970Z,4.60
2023-05-21T20:11:48.942Z,4.80
2023-05-21T20:14:16.508Z,6.00
2023-05-21T20:16:47.292Z,6.50
2023-05-21T20:19:15.411Z,9.20
2023-05-21T20:21:44.403Z,9.90
2023-05-21T20:24:14.595Z,11.30
2023-05-21T20:26:45.141Z,12.40
2023-05-21T20:29:12.510Z,14.20
2023-05-21T20:31:40.961Z,14.00
2023-05-21T20:34:09.359Z,15.10
2023-05-21T20:36:37.166Z,14.60
2023-05-21T20:39:05.216Z,15.70
2023-05-21T20:41:38.890Z,11.90
2023-05-21T20:44:08.326Z,9.20
2023-05-21T20:46:39.512Z,8.00
2023-05-21T20:49:09.962Z,6.50
2023-05-21T20:51:37.410Z,5.40
2023-05-21T20:54:05.821Z,4.60
2023-05-21T20:56:42.145Z,4.50
2023-05-21T20:59:17.501Z,4.80
2023-05-21T21:01:44.940Z,4.30
2023-05-21T21:04:13.809Z,4.10
2023-05-21T21:06:41.061Z,3.70
2023-05-21T21:09:10.672Z,3.80
2023-05-21T21:11:37.913Z,4.30
2023-05-21T21:14:05.253Z,3.50
2023-05-21T21:16:33.450Z,3.70
2023-05-21T21:19:01.224Z,3.80
2023-05-21T21:21:32.856Z,3.60
2023-05-21T21:24:01.518Z,4.60
2023-05-21T21:26:28.858Z,4.60
2023-05-21T21:28:56.627Z,4.20
2023-05-21T21:31:25.428Z,4.70
2023-05-21T21:33:53.879Z,4.60
2023-05-21T21:36:21.395Z,4.50
2023-05-21T21:38:48.702Z,3.90
2023-05-21T21:41:16.373Z,4.60
2023-05-21T21:43:45.279Z,4.00
2023-05-21T21:46:12.586Z,4.30
2023-05-21T21:48:42.132Z,5.80
2023-05-21T21:51:09.350Z,5.10
2023-05-21T21:53:36.567Z,4.30
2023-05-21T21:56:19.326Z,4.50
2023-05-21T21:59:10.297Z,4.10
2023-05-21T22:01:37.546Z,4.50
2023-05-21T22:04:05.396Z,4.30
2023-05-21T22:06:33.376Z,4.50
2023-05-21T22:09:00.869Z,4.60
2023-05-21T22:11:31.269Z,4.30
2023-05-21T22:14:00.497Z,3.90
2023-05-21T22:16:29.343Z,4.30
2023-05-21T22:18:58.219Z,3.50
2023-05-21T22:21:29.565Z,3.80
2023-05-21T22:23:56.699Z,4.10
2023-05-21T22:26:23.893Z,4.30
2023-05-21T22:28:52.691Z,3.50
2023-05-21T22:31:20.009Z,3.40
2023-05-21T22:33:47.229Z,2.90
2023-05-21T22:36:14.495Z,3.60
2023-05-21T22:38:41.840Z,3.40
2023-05-21T22:41:11.312Z,2.90
2023-05-21T22:43:38.597Z,4.00
2023-05-21T22:46:06.093Z,3.30
2023-05-21T22:48:38.129Z,3.80
2023-05-21T22:51:09.873Z,3.30
2023-05-21T22:53:37.265Z,3.80
2023-05-21T22:56:04.657Z,3.50
2023-05-21T22:58:32.447Z,3.80
2023-05-21T23:00:59.796Z,3.50
2023-05-21T23:03:26.963Z,3.70
2023-05-21T23:05:54.204Z,3.80
2023-05-21T23:08:21.448Z,3.00
2023-05-21T23:10:50.074Z,3.40
2023-05-21T23:13:17.258Z,3.50
2023-05-21T23:15:44.568Z,3.00
2023-05-21T23:18:13.056Z,2.80
2023-05-21T23:20:41.507Z,3.60
2023-05-21T23:23:09.839Z,3.10
2023-05-21T23:25:37.551Z,3.60
2023-05-21T23:28:06.356Z,3.20
2023-05-21T23:30:34.615Z,3.40
2023-05-21T23:33:03.854Z,2.80
2023-05-21T23:35:31.049Z,2.70
2023-05-21T23:37:58.339Z,3.00
2023-05-21T23:40:25.522Z,2.80
2023-05-21T23:42:52.809Z,2.70
2023-05-21T23:45:20.796Z,3.20
2023-05-21T23:47:50.418Z,3.40
2023-05-21T23:50:19.612Z,3.20
2023-05-21T23:52:47.456Z,2.80
2023-05-21T23:55:15.426Z,3.20
2023-05-21T23:57:43.259Z,3.90
